Time;durP1;ratioP1;P1;durP2;ratioP2;P2;SDS_P1;SDS_P2;PMS_P1;PMS_P2;Temp;Humidity;BMP_temperature;BMP_pressure;BME280_temperature;BME280_humidity;BME280_pressure;Samples;Min_cycle;Max_cycle;Signal;HPM_P1;HPM_P2
2022/07/28 00:02:00;;;;;;;15.95;9.90;;;;;;;;;;10484469;28;20025;-75
2022/07/28 00:07:01;;;;;;;11.10;7.45;;;;;;;;;;10484958;28;20025;-75
2022/07/28 00:12:01;;;;;;;20.40;9.00;;;;;;;;;;10454578;28;20024;-75
2022/07/28 00:17:01;;;;;;;16.30;7.93;;;;;;;;;;10484182;28;20032;-75
2022/07/28 00:22:02;;;;;;;15.27;8.75;;;;;;;;;;10487301;28;20032;-75
2022/07/28 00:27:03;;;;;;;16.10;9.17;;;;;;;;;;10451810;28;20167;-75
2022/07/28 00:32:03;;;;;;;16.52;9.68;;;;;;;;;;10452950;28;20053;-79
2022/07/28 00:37:04;;;;;;;23.58;10.18;;;;;;;;;;10486298;28;20044;-75
2022/07/28 00:42:04;;;;;;;21.67;11.43;;;;;;;;;;10493265;28;20042;-74
2022/07/28 00:47:04;;;;;;;14.93;8.30;;;;;;;;;;10453037;28;20021;-76
2022/07/28 00:52:06;;;;;;;20.25;10.65;;;;;;;;;;10484069;28;20402;-74
2022/07/28 00:57:06;;;;;;;18.10;10.65;;;;;;;;;;10462730;28;20087;-74
2022/07/28 01:02:06;;;;;;;19.08;11.55;;;;;;;;;;10452246;28;20056;-74
2022/07/28 01:07:13;;;;;;;21.42;12.98;;;;;;;;;;10450628;28;20025;-81
2022/07/28 01:12:25;;;;;;;17.85;12.32;;;;;;;;;;10481649;28;20025;-74
2022/07/28 01:17:36;;;;;;;24.98;13.32;;;;;;;;;;10491824;28;20028;-75
2022/07/28 01:22:47;;;;;;;23.55;14.27;;;;;;;;;;10450872;28;20032;-74
2022/07/28 01:27:47;;;;;;;22.02;13.80;;;;;;;;;;10450929;28;20049;-75
2022/07/28 01:32:51;;;;;;;19.27;13.38;;;;;;;;;;10449721;28;20111;-77
2022/07/28 01:37:53;;;;;;;19.50;14.27;;;;;;;;;;10449594;28;20021;-81
2022/07/28 01:42:56;;;;;;;25.67;13.10;;;;;;;;;;10448625;28;20024;-74
2022/07/28 01:47:58;;;;;;;22.02;14.90;;;;;;;;;;10490022;28;20086;-74
2022/07/28 01:52:58;;;;;;;20.70;13.52;;;;;;;;;;10452964;28;20021;-75
2022/07/28 01:58:00;;;;;;;24.45;15.00;;;;;;;;;;10449889;28;20158;-73
2022/07/28 02:03:02;;;;;;;21.20;14.73;;;;;;;;;;10457291;28;20313;-73
2022/07/28 02:08:03;;;;;;;19.50;12.98;;;;;;;;;;10469871;28;20430;-74
2022/07/28 02:13:04;;;;;;;16.60;11.25;;;;;;;;;;10479808;28;20116;-74
2022/07/28 02:18:06;;;;;;;21.17;13.32;;;;;;;;;;10475268;28;20603;-75
2022/07/28 02:23:06;;;;;;;27.60;15.65;;;;;;;;;;10449698;28;20090;-75
2022/07/28 02:28:08;;;;;;;19.67;13.98;;;;;;;;;;10448424;28;20136;-75
2022/07/28 02:33:14;;;;;;;19.98;12.90;;;;;;;;;;10467132;28;20021;-74
2022/07/28 02:38:19;;;;;;;18.98;12.85;;;;;;;;;;10463257;28;20033;-74
2022/07/28 02:43:29;;;;;;;18.20;12.60;;;;;;;;;;10448122;28;20039;-74
2022/07/28 02:48:30;;;;;;;18.23;13.27;;;;;;;;;;10447972;28;20025;-75
2022/07/28 02:53:30;;;;;;;19.85;12.77;;;;;;;;;;10481782;28;20110;-74
2022/07/28 02:58:32;;;;;;;22.52;13.25;;;;;;;;;;10455687;28;20572;-74
2022/07/28 03:03:32;;;;;;;20.65;12.65;;;;;;;;;;10480129;28;20486;-74
2022/07/28 03:08:32;;;;;;;22.98;14.07;;;;;;;;;;10455293;28;20021;-75
2022/07/28 03:13:33;;;;;;;19.03;11.97;;;;;;;;;;10486742;28;20463;-75
2022/07/28 03:18:33;;;;;;;19.33;12.10;;;;;;;;;;10455338;28;20116;-75
2022/07/28 03:23:37;;;;;;;20.65;11.68;;;;;;;;;;10455103;28;20029;-76
2022/07/28 03:28:38;;;;;;;18.83;11.85;;;;;;;;;;10454659;28;20049;-75
2022/07/28 03:33:38;;;;;;;17.20;11.38;;;;;;;;;;10480058;28;20112;-75
2022/07/28 03:38:50;;;;;;;15.13;11.07;;;;;;;;;;10494831;28;20242;-75
2022/07/28 03:43:51;;;;;;;20.65;11.45;;;;;;;;;;10495288;28;20028;-75
2022/07/28 03:48:52;;;;;;;17.73;11.50;;;;;;;;;;10454144;28;20029;-75
2022/07/28 03:53:52;;;;;;;18.77;12.30;;;;;;;;;;10453956;28;20471;-75
2022/07/28 03:58:52;;;;;;;21.70;13.60;;;;;;;;;;10454737;28;20163;-76
2022/07/28 04:03:53;;;;;;;20.38;12.55;;;;;;;;;;10452769;28;20340;-75
2022/07/28 04:08:53;;;;;;;19.48;11.95;;;;;;;;;;10481879;28;20086;-75
2022/07/28 04:13:54;;;;;;;21.30;12.48;;;;;;;;;;10472210;28;20032;-75
2022/07/28 04:18:54;;;;;;;15.48;11.55;;;;;;;;;;10478971;28;20030;-74
2022/07/28 04:23:55;;;;;;;14.30;10.80;;;;;;;;;;10489865;28;20128;-74
2022/07/28 04:28:55;;;;;;;14.63;10.23;;;;;;;;;;10455706;28;20056;-75
2022/07/28 04:33:55;;;;;;;14.05;10.10;;;;;;;;;;10472382;28;20020;-74
2022/07/28 04:38:58;;;;;;;11.13;8.60;;;;;;;;;;10493647;28;20024;-73
2022/07/28 04:43:58;;;;;;;21.25;12.13;;;;;;;;;;10491934;28;20027;-76
2022/07/28 04:48:58;;;;;;;25.85;15.60;;;;;;;;;;10491537;28;20027;-78
2022/07/28 04:53:58;;;;;;;31.48;17.90;;;;;;;;;;10491987;28;20507;-80
2022/07/28 04:59:00;;;;;;;30.65;19.88;;;;;;;;;;10491569;28;20012;-75
2022/07/28 05:04:00;;;;;;;30.95;18.98;;;;;;;;;;10491020;28;20569;-75
2022/07/28 05:09:00;;;;;;;32.00;19.63;;;;;;;;;;10488884;28;20078;-74
2022/07/28 05:14:01;;;;;;;34.80;19.27;;;;;;;;;;10489331;28;20012;-75
2022/07/28 05:19:01;;;;;;;31.50;19.00;;;;;;;;;;10490277;28;20027;-79
2022/07/28 05:24:01;;;;;;;32.00;19.45;;;;;;;;;;10490175;28;20406;-75
2022/07/28 05:29:02;;;;;;;35.80;21.07;;;;;;;;;;10489691;28;20131;-74
2022/07/28 05:34:02;;;;;;;35.73;19.13;;;;;;;;;;10489675;28;20147;-75
2022/07/28 05:39:02;;;;;;;34.75;20.13;;;;;;;;;;10486745;28;20071;-73
2022/07/28 05:44:03;;;;;;;32.15;21.30;;;;;;;;;;10491034;28;20020;-74
2022/07/28 05:49:04;;;;;;;43.03;23.90;;;;;;;;;;10464002;28;20025;-74
2022/07/28 05:54:04;;;;;;;43.03;21.58;;;;;;;;;;10450318;28;20025;-75
2022/07/28 05:59:08;;;;;;;30.07;20.67;;;;;;;;;;10460344;28;20189;-74
2022/07/28 06:04:08;;;;;;;36.17;22.75;;;;;;;;;;10462105;28;20029;-75
2022/07/28 06:09:09;;;;;;;34.25;20.90;;;;;;;;;;10451212;28;20410;-74
2022/07/28 06:14:09;;;;;;;31.40;21.15;;;;;;;;;;10448598;28;20510;-75
2022/07/28 06:19:09;;;;;;;28.90;19.77;;;;;;;;;;10484170;28;20521;-75
2022/07/28 06:24:09;;;;;;;28.70;18.63;;;;;;;;;;10496356;28;20032;-77
2022/07/28 06:29:10;;;;;;;31.70;18.05;;;;;;;;;;10503558;28;20054;-75
2022/07/28 06:34:10;;;;;;;30.33;17.85;;;;;;;;;;10506027;28;20017;-74
2022/07/28 06:39:11;;;;;;;30.02;18.55;;;;;;;;;;10505336;28;20508;-72
2022/07/28 06:44:11;;;;;;;20.02;14.20;;;;;;;;;;10512330;28;20030;-73
2022/07/28 06:49:12;;;;;;;17.60;12.65;;;;;;;;;;10505515;28;20410;-77
2022/07/28 06:54:12;;;;;;;19.50;12.40;;;;;;;;;;10504119;28;20024;-73
2022/07/28 06:59:14;;;;;;;17.92;10.52;;;;;;;;;;10496522;28;20540;-73
2022/07/28 07:04:14;;;;;;;18.35;10.00;;;;;;;;;;10491363;28;20035;-78
2022/07/28 07:09:14;;;;;;;13.25;10.20;;;;;;;;;;10500007;28;20453;-76
2022/07/28 07:14:14;;;;;;;17.38;12.85;;;;;;;;;;10508222;28;20689;-77
2022/07/28 07:19:15;;;;;;;24.00;14.00;;;;;;;;;;10502668;28;20021;-79
2022/07/28 07:24:15;;;;;;;15.70;11.97;;;;;;;;;;10497254;28;20119;-73
2022/07/28 07:29:16;;;;;;;23.80;13.25;;;;;;;;;;10501722;28;20028;-76
2022/07/28 07:34:16;;;;;;;26.40;14.93;;;;;;;;;;10500781;28;20070;-73
2022/07/28 07:39:16;;;;;;;21.70;13.45;;;;;;;;;;10511334;28;20016;-73
2022/07/28 07:44:17;;;;;;;25.48;14.43;;;;;;;;;;10487694;28;20048;-73
2022/07/28 07:49:17;;;;;;;23.23;11.75;;;;;;;;;;10451667;28;20025;-74
2022/07/28 07:54:17;;;;;;;17.85;12.50;;;;;;;;;;10486076;28;20043;-74
2022/07/28 07:59:17;;;;;;;23.20;13.45;;;;;;;;;;10483989;28;20374;-73
2022/07/28 08:04:18;;;;;;;19.70;13.40;;;;;;;;;;10450768;28;20055;-74
2022/07/28 08:09:18;;;;;;;20.70;14.38;;;;;;;;;;10477674;28;20433;-74
2022/07/28 08:14:19;;;;;;;20.53;13.40;;;;;;;;;;10449631;28;20017;-73
2022/07/28 08:19:19;;;;;;;20.98;14.25;;;;;;;;;;10478856;28;20490;-74
2022/07/28 08:24:19;;;;;;;18.77;12.80;;;;;;;;;;10476490;28;20029;-72
2022/07/28 08:29:19;;;;;;;22.08;14.15;;;;;;;;;;10452417;28;20102;-73
2022/07/28 08:34:20;;;;;;;22.45;12.65;;;;;;;;;;10452515;28;20520;-73
2022/07/28 08:39:20;;;;;;;19.90;12.90;;;;;;;;;;10486245;28;20383;-73
2022/07/28 08:44:23;;;;;;;18.20;13.02;;;;;;;;;;10466825;28;20476;-74
2022/07/28 08:49:24;;;;;;;18.67;13.10;;;;;;;;;;10478533;28;20028;-72
2022/07/28 08:54:26;;;;;;;20.60;12.82;;;;;;;;;;10481784;28;20104;-74
2022/07/28 08:59:27;;;;;;;21.90;13.48;;;;;;;;;;10451656;28;20048;-73
2022/07/28 09:04:27;;;;;;;19.75;13.38;;;;;;;;;;10450896;28;20033;-73
2022/07/28 09:09:27;;;;;;;25.67;14.43;;;;;;;;;;10451056;28;20021;-74
2022/07/28 09:14:27;;;;;;;25.65;14.45;;;;;;;;;;10450852;28;20787;-74
2022/07/28 09:19:28;;;;;;;21.45;14.15;;;;;;;;;;10450550;28;20028;-73
2022/07/28 09:24:41;;;;;;;21.42;14.20;;;;;;;;;;10450393;28;20086;-73
2022/07/28 09:29:47;;;;;;;26.20;14.07;;;;;;;;;;10480445;28;20036;-73
2022/07/28 09:34:48;;;;;;;24.98;14.77;;;;;;;;;;10492786;28;20039;-73
2022/07/28 09:39:49;;;;;;;25.48;14.45;;;;;;;;;;10453970;28;20032;-74
2022/07/28 09:45:03;;;;;;;29.38;15.32;;;;;;;;;;10449319;28;20048;-73
2022/07/28 09:50:04;;;;;;;25.23;14.90;;;;;;;;;;10450828;28;20078;-73
2022/07/28 09:55:06;;;;;;;24.70;15.02;;;;;;;;;;10484233;28;20073;-74
2022/07/28 10:00:08;;;;;;;29.45;17.67;;;;;;;;;;10458883;28;20021;-73
2022/07/28 10:05:09;;;;;;;27.55;15.18;;;;;;;;;;10432190;28;20062;-73
2022/07/28 10:10:10;;;;;;;18.73;12.10;;;;;;;;;;10481004;28;20050;-73
2022/07/28 10:20:33;;;;;;;8.48;5.90;;;;;;;;;;10450835;28;20020;-75
2022/07/28 10:25:34;;;;;;;11.95;8.43;;;;;;;;;;10480894;28;20041;-75
2022/07/28 10:30:36;;;;;;;14.27;8.82;;;;;;;;;;10482641;28;20028;-74
2022/07/28 10:35:36;;;;;;;8.90;7.18;;;;;;;;;;10448709;28;20684;-75
2022/07/28 10:40:43;;;;;;;13.77;6.77;;;;;;;;;;10448007;28;20103;-75
2022/07/28 10:45:43;;;;;;;6.50;4.40;;;;;;;;;;10477273;28;20020;-73
2022/07/28 10:50:44;;;;;;;7.60;4.63;;;;;;;;;;10465033;28;20024;-74
2022/07/28 10:56:01;;;;;;;9.40;5.63;;;;;;;;;;10453818;28;20028;-76
2022/07/28 11:01:01;;;;;;;7.50;5.32;;;;;;;;;;10449317;28;20506;-76
2022/07/28 11:06:28;;;;;;;7.13;5.20;;;;;;;;;;10447954;28;20025;-75
2022/07/28 11:12:01;;;;;;;7.30;5.88;;;;;;;;;;10478079;28;20580;-75
2022/07/28 11:17:04;;;;;;;9.05;7.05;;;;;;;;;;10482020;28;20082;-75
2022/07/28 11:22:14;;;;;;;11.25;7.25;;;;;;;;;;10506006;28;20066;-73
2022/07/28 11:27:14;;;;;;;12.85;7.85;;;;;;;;;;10503633;28;20550;-74
2022/07/28 11:32:15;;;;;;;9.25;7.30;;;;;;;;;;10505576;28;20036;-79
2022/07/28 11:37:15;;;;;;;12.18;7.03;;;;;;;;;;10502872;28;20025;-75
2022/07/28 11:42:29;;;;;;;8.77;6.82;;;;;;;;;;10500384;28;20020;-76
2022/07/28 11:47:30;;;;;;;10.60;7.97;;;;;;;;;;10505197;28;20019;-75
2022/07/28 11:52:31;;;;;;;9.57;7.57;;;;;;;;;;10499783;28;20558;-78
2022/07/28 11:57:38;;;;;;;11.57;7.80;;;;;;;;;;10510938;28;20119;-74
2022/07/28 12:02:39;;;;;;;18.35;8.38;;;;;;;;;;10503762;28;20302;-78
2022/07/28 12:07:45;;;;;;;14.05;7.85;;;;;;;;;;10502517;28;20468;-82
2022/07/28 12:12:48;;;;;;;12.88;8.98;;;;;;;;;;10507378;28;20017;-79
2022/07/28 12:17:48;;;;;;;10.63;8.48;;;;;;;;;;10499400;28;20409;-76
2022/07/28 12:22:55;;;;;;;12.63;9.07;;;;;;;;;;10497733;28;20116;-79
2022/07/28 12:27:57;;;;;;;12.00;8.15;;;;;;;;;;10500158;28;20040;-79
2022/07/28 12:32:57;;;;;;;13.73;9.20;;;;;;;;;;10503737;28;20032;-73
2022/07/28 12:37:57;;;;;;;11.73;8.80;;;;;;;;;;10505721;28;20029;-74
2022/07/28 12:42:57;;;;;;;15.67;9.23;;;;;;;;;;10504410;28;20028;-75
2022/07/28 12:48:05;;;;;;;13.27;9.48;;;;;;;;;;10499572;28;20035;-74
2022/07/28 12:53:09;;;;;;;11.77;8.90;;;;;;;;;;10503719;28;20017;-75
2022/07/28 12:58:23;;;;;;;13.20;9.13;;;;;;;;;;10496910;28;20413;-78
2022/07/28 13:03:25;;;;;;;18.88;8.38;;;;;;;;;;10511130;28;20112;-75
2022/07/28 13:08:26;;;;;;;11.95;8.70;;;;;;;;;;10482563;28;20024;-75
2022/07/28 13:13:26;;;;;;;16.67;8.33;;;;;;;;;;10497961;28;20482;-75
2022/07/28 13:18:39;;;;;;;12.77;8.17;;;;;;;;;;10501422;28;20358;-76
2022/07/28 13:23:40;;;;;;;10.68;8.10;;;;;;;;;;10510420;28;20406;-79
2022/07/28 13:28:40;;;;;;;13.82;8.70;;;;;;;;;;10500957;28;20055;-75
2022/07/28 13:33:40;;;;;;;12.75;7.25;;;;;;;;;;10500049;28;20106;-74
2022/07/28 13:38:41;;;;;;;12.60;7.37;;;;;;;;;;10498883;28;20031;-74
2022/07/28 13:43:41;;;;;;;13.75;8.07;;;;;;;;;;10502958;28;20280;-74
2022/07/28 13:48:42;;;;;;;14.10;8.43;;;;;;;;;;10501307;28;20035;-76
2022/07/28 13:53:42;;;;;;;12.68;7.72;;;;;;;;;;10499259;28;20047;-75
2022/07/28 13:58:43;;;;;;;19.25;9.35;;;;;;;;;;10499409;28;20460;-74
2022/07/28 14:03:43;;;;;;;12.48;9.02;;;;;;;;;;10501562;28;20055;-74
2022/07/28 14:08:43;;;;;;;13.48;8.88;;;;;;;;;;10491911;28;20040;-75
2022/07/28 14:13:43;;;;;;;15.50;10.30;;;;;;;;;;10494526;28;20024;-74
2022/07/28 14:18:44;;;;;;;17.23;10.52;;;;;;;;;;10494291;28;20069;-74
2022/07/28 14:23:44;;;;;;;22.93;10.10;;;;;;;;;;10502954;28;20039;-75
2022/07/28 14:28:44;;;;;;;11.93;8.90;;;;;;;;;;10492944;28;20086;-75
2022/07/28 14:33:44;;;;;;;11.02;8.27;;;;;;;;;;10496956;28;20021;-75
2022/07/28 14:38:46;;;;;;;11.82;7.88;;;;;;;;;;10503130;28;20027;-75
2022/07/28 14:43:46;;;;;;;11.98;8.52;;;;;;;;;;10490188;28;20046;-79
2022/07/28 14:48:46;;;;;;;13.75;8.32;;;;;;;;;;10488828;28;20045;-79
2022/07/28 14:53:47;;;;;;;15.23;7.82;;;;;;;;;;10498509;28;20051;-79
2022/07/28 14:58:47;;;;;;;11.33;8.13;;;;;;;;;;10491319;28;20034;-78
2022/07/28 15:03:47;;;;;;;15.23;10.27;;;;;;;;;;10495901;28;20031;-79
2022/07/28 15:08:47;;;;;;;17.80;9.88;;;;;;;;;;10497442;28;20024;-78
2022/07/28 15:13:48;;;;;;;12.20;9.73;;;;;;;;;;10497826;28;20085;-77
2022/07/28 15:18:50;;;;;;;15.55;8.43;;;;;;;;;;10505678;28;20105;-79
2022/07/28 15:23:50;;;;;;;11.95;8.18;;;;;;;;;;10504472;28;20024;-78
2022/07/28 15:28:50;;;;;;;12.70;8.52;;;;;;;;;;10503168;28;20049;-78
2022/07/28 15:33:51;;;;;;;13.32;8.70;;;;;;;;;;10502525;28;20035;-73
2022/07/28 15:38:52;;;;;;;12.63;7.93;;;;;;;;;;10507629;28;20120;-78
2022/07/28 15:43:52;;;;;;;14.90;8.55;;;;;;;;;;10506646;22;20450;-78
2022/07/28 15:48:53;;;;;;;15.57;8.30;;;;;;;;;;10427636;28;20033;-80
2022/07/28 15:53:55;;;;;;;11.73;8.20;;;;;;;;;;10427636;28;20032;-78
2022/07/28 15:58:56;;;;;;;13.82;8.95;;;;;;;;;;10422756;28;20527;-79
2022/07/28 16:03:56;;;;;;;14.85;7.93;;;;;;;;;;10425604;28;20052;-80
2022/07/28 16:08:57;;;;;;;13.50;8.43;;;;;;;;;;10433765;28;20487;-79
2022/07/28 16:13:57;;;;;;;13.77;8.55;;;;;;;;;;10425946;28;20028;-77
2022/07/28 16:18:57;;;;;;;17.60;9.48;;;;;;;;;;10432710;28;20021;-79
2022/07/28 16:23:57;;;;;;;20.33;10.95;;;;;;;;;;10422237;28;20025;-81
2022/07/28 16:28:58;;;;;;;20.13;9.00;;;;;;;;;;10451092;28;20033;-79
2022/07/28 16:33:58;;;;;;;17.20;11.40;;;;;;;;;;10434481;28;20013;-79
2022/07/28 16:38:59;;;;;;;19.35;11.25;;;;;;;;;;10433750;28;20083;-79
2022/07/28 16:44:00;;;;;;;16.40;10.43;;;;;;;;;;10434300;28;20440;-74
2022/07/28 16:49:00;;;;;;;18.08;10.07;;;;;;;;;;10433846;28;20029;-78
2022/07/28 16:54:00;;;;;;;13.90;9.50;;;;;;;;;;10434039;28;20021;-78
2022/07/28 16:59:01;;;;;;;27.38;14.75;;;;;;;;;;10417192;28;20025;-77
2022/07/28 17:04:01;;;;;;;22.92;11.13;;;;;;;;;;10406223;28;20035;-78
2022/07/28 17:09:02;;;;;;;19.50;9.68;;;;;;;;;;10432075;28;20162;-78
2022/07/28 17:14:03;;;;;;;12.10;8.73;;;;;;;;;;10432678;28;20032;-79
2022/07/28 17:19:03;;;;;;;14.48;7.72;;;;;;;;;;10432864;28;20267;-78
2022/07/28 17:24:04;;;;;;;12.65;8.52;;;;;;;;;;10432747;28;20020;-79
2022/07/28 17:29:04;;;;;;;11.27;8.80;;;;;;;;;;10431362;28;20029;-75
2022/07/28 17:34:05;;;;;;;13.77;9.38;;;;;;;;;;10431689;28;20022;-74
2022/07/28 17:39:08;;;;;;;14.07;9.95;;;;;;;;;;10427786;28;20030;-80
2022/07/28 17:44:08;;;;;;;19.25;9.50;;;;;;;;;;10424063;28;20088;-75
2022/07/28 17:49:08;;;;;;;19.43;8.43;;;;;;;;;;10429117;28;20124;-81
2022/07/28 17:54:12;;;;;;;10.77;7.55;;;;;;;;;;10431200;28;20279;-79
2022/07/28 17:59:14;;;;;;;8.07;6.18;;;;;;;;;;10436534;28;20073;-80
2022/07/28 18:04:14;;;;;;;8.05;6.30;;;;;;;;;;10422690;28;20119;-80
2022/07/28 18:09:15;;;;;;;8.40;5.53;;;;;;;;;;10437647;28;20033;-79
2022/07/28 18:14:15;;;;;;;9.88;5.28;;;;;;;;;;10415879;28;20032;-76
2022/07/28 18:19:15;;;;;;;8.52;5.15;;;;;;;;;;10420516;28;20064;-76
2022/07/28 18:24:16;;;;;;;6.78;4.50;;;;;;;;;;10414594;23;20050;-79
2022/07/28 18:29:18;;;;;;;6.72;4.90;;;;;;;;;;10330379;28;20030;-78
2022/07/28 18:34:19;;;;;;;20.35;4.95;;;;;;;;;;10353190;28;20018;-77
2022/07/28 18:39:19;;;;;;;8.80;4.75;;;;;;;;;;10352569;28;20503;-78
2022/07/28 18:44:19;;;;;;;8.05;4.65;;;;;;;;;;10330475;28;20033;-80
2022/07/28 18:49:20;;;;;;;8.45;5.15;;;;;;;;;;10375046;28;20022;-78
2022/07/28 18:54:20;;;;;;;7.95;4.63;;;;;;;;;;10397871;28;20056;-77
2022/07/28 18:59:20;;;;;;;12.77;5.70;;;;;;;;;;10413246;28;20171;-78
2022/07/28 19:04:21;;;;;;;7.72;4.85;;;;;;;;;;10382886;28;20291;-78
2022/07/28 19:09:21;;;;;;;8.98;5.72;;;;;;;;;;10366160;28;20029;-75
2022/07/28 19:14:22;;;;;;;10.07;5.53;;;;;;;;;;10386119;28;20025;-78
2022/07/28 19:19:22;;;;;;;11.93;6.32;;;;;;;;;;10510978;23;20093;-80
2022/07/28 19:24:22;;;;;;;6.28;4.78;;;;;;;;;;10527517;28;20031;-77
2022/07/28 19:29:23;;;;;;;7.20;4.63;;;;;;;;;;10537437;28;20064;-78
2022/07/28 19:34:24;;;;;;;9.45;5.15;;;;;;;;;;10521326;28;20496;-78
2022/07/28 19:39:24;;;;;;;4.63;4.13;;;;;;;;;;10548619;28;20111;-74
2022/07/28 19:44:26;;;;;;;7.60;5.13;;;;;;;;;;10565227;28;20043;-77
2022/07/28 19:49:27;;;;;;;8.18;4.78;;;;;;;;;;10520996;28;20208;-80
2022/07/28 19:54:27;;;;;;;7.10;4.67;;;;;;;;;;10512999;28;20048;-79
2022/07/28 19:59:29;;;;;;;5.40;3.95;;;;;;;;;;10504702;28;20028;-77
2022/07/28 20:04:29;;;;;;;8.75;6.20;;;;;;;;;;10509338;28;20032;-78
2022/07/28 20:09:30;;;;;;;10.50;6.70;;;;;;;;;;10495830;28;20029;-79
2022/07/28 20:14:30;;;;;;;11.45;7.88;;;;;;;;;;10509459;28;20039;-80
2022/07/28 20:19:30;;;;;;;11.57;8.23;;;;;;;;;;10507784;28;20057;-78
2022/07/28 20:24:30;;;;;;;11.15;7.22;;;;;;;;;;10507554;28;20036;-74
2022/07/28 20:29:31;;;;;;;9.88;7.18;;;;;;;;;;10499118;28;20040;-80
2022/07/28 20:34:31;;;;;;;8.68;6.78;;;;;;;;;;10499841;28;20021;-77
2022/07/28 20:39:31;;;;;;;8.40;6.05;;;;;;;;;;10481715;28;20024;-80
2022/07/28 20:44:31;;;;;;;10.73;7.18;;;;;;;;;;10491978;28;20028;-78
2022/07/28 20:49:31;;;;;;;15.93;7.15;;;;;;;;;;10502667;28;20395;-80
2022/07/28 20:54:32;;;;;;;13.35;7.90;;;;;;;;;;10496385;28;20418;-76
2022/07/28 20:59:32;;;;;;;13.47;7.70;;;;;;;;;;10502459;28;20182;-80
2022/07/28 21:04:32;;;;;;;15.90;8.07;;;;;;;;;;10491310;28;20035;-80
2022/07/28 21:09:33;;;;;;;8.90;7.00;;;;;;;;;;10478150;28;20071;-78
2022/07/28 21:14:33;;;;;;;17.40;7.40;;;;;;;;;;10504563;28;20020;-80
2022/07/28 21:19:33;;;;;;;9.40;5.22;;;;;;;;;;10501837;28;20059;-80
2022/07/28 21:24:33;;;;;;;10.27;5.47;;;;;;;;;;10507461;28;20024;-79
2022/07/28 21:29:35;;;;;;;7.68;5.45;;;;;;;;;;10503152;28;20052;-79
2022/07/28 21:34:37;;;;;;;13.10;7.22;;;;;;;;;;10483641;28;20024;-80
2022/07/28 21:39:37;;;;;;;8.45;6.47;;;;;;;;;;10493670;28;20028;-79
2022/07/28 21:44:38;;;;;;;10.73;7.60;;;;;;;;;;10513369;28;20033;-80
2022/07/28 21:49:38;;;;;;;9.27;5.97;;;;;;;;;;10493534;28;20024;-78
2022/07/28 21:54:38;;;;;;;8.73;5.10;;;;;;;;;;10516225;28;20046;-79
2022/07/28 21:59:38;;;;;;;8.45;5.75;;;;;;;;;;10502557;28;20451;-79
2022/07/28 22:04:39;;;;;;;9.85;5.97;;;;;;;;;;10508426;28;20028;-80
2022/07/28 22:09:39;;;;;;;8.07;6.53;;;;;;;;;;10493399;28;20040;-79
2022/07/28 22:14:39;;;;;;;8.73;6.57;;;;;;;;;;10504488;28;20162;-78
2022/07/28 22:19:39;;;;;;;12.13;7.13;;;;;;;;;;10481216;28;20525;-77
2022/07/28 22:24:40;;;;;;;13.05;7.97;;;;;;;;;;10481477;28;20123;-75
2022/07/28 22:29:40;;;;;;;12.25;8.10;;;;;;;;;;10482142;28;20028;-75
2022/07/28 22:34:40;;;;;;;10.80;7.70;;;;;;;;;;10482549;28;20062;-78
2022/07/28 22:39:41;;;;;;;15.10;8.65;;;;;;;;;;10478032;28;20028;-81
2022/07/28 22:44:41;;;;;;;13.07;8.63;;;;;;;;;;10475644;28;20049;-78
2022/07/28 22:49:42;;;;;;;13.50;8.82;;;;;;;;;;10479966;28;20029;-74
2022/07/28 22:54:42;;;;;;;11.70;8.55;;;;;;;;;;10476949;28;20016;-76
2022/07/28 22:59:43;;;;;;;13.18;8.48;;;;;;;;;;10488387;28;20477;-75
2022/07/28 23:04:43;;;;;;;14.15;8.05;;;;;;;;;;10488556;28;20104;-75
2022/07/28 23:09:43;;;;;;;13.32;8.63;;;;;;;;;;10494330;28;20103;-80
2022/07/28 23:14:43;;;;;;;13.90;9.03;;;;;;;;;;10496987;28;20036;-75
2022/07/28 23:19:44;;;;;;;11.82;8.02;;;;;;;;;;10497007;28;20060;-76
2022/07/28 23:24:44;;;;;;;18.42;8.25;;;;;;;;;;10497081;28;20073;-76
2022/07/28 23:29:44;;;;;;;13.68;8.18;;;;;;;;;;10496926;28;20028;-75
2022/07/28 23:34:44;;;;;;;13.60;7.75;;;;;;;;;;10496483;28;20032;-75
2022/07/28 23:39:45;;;;;;;12.13;7.97;;;;;;;;;;10496411;28;20105;-75
2022/07/28 23:44:45;;;;;;;11.68;7.75;;;;;;;;;;10496506;28;20032;-75
2022/07/28 23:49:45;;;;;;;12.88;7.60;;;;;;;;;;10495838;28;20048;-76
2022/07/28 23:54:45;;;;;;;11.18;7.50;;;;;;;;;;10497911;28;20028;-75
2022/07/28 23:59:46;;;;;;;12.38;7.80;;;;;;;;;;10495885;28;20033;-75
